sensor_id;sensor_type;location;lat;lon;timestamp;pressure;altitude;pressure_sealevel;temperature
10869;BMP180;62667;48.698;8.762;2023-03-01T00:01:03;96592.00;;;-1.80
10869;BMP180;62667;48.698;8.762;2023-03-01T00:03:31;96594.00;;;-1.80
10869;BMP180;62667;48.698;8.762;2023-03-01T00:05:59;96595.00;;;-1.80
10869;BMP180;62667;48.698;8.762;2023-03-01T00:08:27;96587.00;;;-1.80
10869;BMP180;62667;48.698;8.762;2023-03-01T00:11:04;96578.00;;;-1.70
10869;BMP180;62667;48.698;8.762;2023-03-01T00:13:32;96579.00;;;-1.70
10869;BMP180;62667;48.698;8.762;2023-03-01T00:16:02;96579.00;;;-1.80
10869;BMP180;62667;48.698;8.762;2023-03-01T00:18:30;96555.00;;;-1.80
10869;BMP180;62667;48.698;8.762;2023-03-01T00:20:57;96592.00;;;-1.80
10869;BMP180;62667;48.698;8.762;2023-03-01T00:23:25;96594.00;;;-1.90
10869;BMP180;62667;48.698;8.762;2023-03-01T00:25:53;96582.00;;;-1.90
10869;BMP180;62667;48.698;8.762;2023-03-01T00:28:21;96596.00;;;-2.00
10869;BMP180;62667;48.698;8.762;2023-03-01T00:30:48;96592.00;;;-2.00
10869;BMP180;62667;48.698;8.762;2023-03-01T00:33:18;96591.00;;;-2.00
10869;BMP180;62667;48.698;8.762;2023-03-01T00:35:45;96587.00;;;-2.00
10869;BMP180;62667;48.698;8.762;2023-03-01T00:38:13;96595.00;;;-2.00
10869;BMP180;62667;48.698;8.762;2023-03-01T00:40:40;96589.00;;;-2.00
10869;BMP180;62667;48.698;8.762;2023-03-01T00:43:08;96579.00;;;-2.00
10869;BMP180;62667;48.698;8.762;2023-03-01T00:45:36;96578.00;;;-2.00
10869;BMP180;62667;48.698;8.762;2023-03-01T00:48:04;96568.00;;;-2.00
10869;BMP180;62667;48.698;8.762;2023-03-01T00:50:33;96569.00;;;-2.00
10869;BMP180;62667;48.698;8.762;2023-03-01T00:53:00;96586.00;;;-2.00
10869;BMP180;62667;48.698;8.762;2023-03-01T00:55:27;96569.00;;;-2.10
10869;BMP180;62667;48.698;8.762;2023-03-01T00:57:55;96577.00;;;-2.20
10869;BMP180;62667;48.698;8.762;2023-03-01T01:00:22;96578.00;;;-2.30
10869;BMP180;62667;48.698;8.762;2023-03-01T01:02:50;96565.00;;;-2.20
10869;BMP180;62667;48.698;8.762;2023-03-01T01:05:17;96576.00;;;-2.20
10869;BMP180;62667;48.698;8.762;2023-03-01T01:07:48;96559.00;;;-2.20
10869;BMP180;62667;48.698;8.762;2023-03-01T01:10:16;96568.00;;;-2.20
10869;BMP180;62667;48.698;8.762;2023-03-01T01:12:47;96572.00;;;-2.30
10869;BMP180;62667;48.698;8.762;2023-03-01T01:15:14;96560.00;;;-2.30
10869;BMP180;62667;48.698;8.762;2023-03-01T01:17:43;96557.00;;;-2.40
10869;BMP180;62667;48.698;8.762;2023-03-01T01:20:11;96554.00;;;-2.40
10869;BMP180;62667;48.698;8.762;2023-03-01T01:22:39;96555.00;;;-2.30
10869;BMP180;62667;48.698;8.762;2023-03-01T01:25:09;96557.00;;;-2.30
10869;BMP180;62667;48.698;8.762;2023-03-01T01:27:36;96541.00;;;-2.30
10869;BMP180;62667;48.698;8.762;2023-03-01T01:30:05;96549.00;;;-2.30
10869;BMP180;62667;48.698;8.762;2023-03-01T01:32:32;96539.00;;;-2.40
10869;BMP180;62667;48.698;8.762;2023-03-01T01:35:00;96542.00;;;-2.50
10869;BMP180;62667;48.698;8.762;2023-03-01T01:37:27;96550.00;;;-2.50
10869;BMP180;62667;48.698;8.762;2023-03-01T01:39:57;96542.00;;;-2.60
10869;BMP180;62667;48.698;8.762;2023-03-01T01:42:27;96549.00;;;-2.70
10869;BMP180;62667;48.698;8.762;2023-03-01T01:45:24;96550.00;;;-2.60
10869;BMP180;62667;48.698;8.762;2023-03-01T01:47:54;96542.00;;;-2.70
10869;BMP180;62667;48.698;8.762;2023-03-01T01:50:23;96537.00;;;-2.60
10869;BMP180;62667;48.698;8.762;2023-03-01T01:52:51;96540.00;;;-2.60
10869;BMP180;62667;48.698;8.762;2023-03-01T01:55:23;96535.00;;;-2.70
10869;BMP180;62667;48.698;8.762;2023-03-01T01:57:54;96539.00;;;-2.70
10869;BMP180;62667;48.698;8.762;2023-03-01T02:00:25;96534.00;;;-2.70
10869;BMP180;62667;48.698;8.762;2023-03-01T02:02:57;96531.00;;;-2.60
10869;BMP180;62667;48.698;8.762;2023-03-01T02:05:33;96535.00;;;-2.70
10869;BMP180;62667;48.698;8.762;2023-03-01T02:08:02;96530.00;;;-2.60
10869;BMP180;62667;48.698;8.762;2023-03-01T02:10:33;96530.00;;;-2.70
10869;BMP180;62667;48.698;8.762;2023-03-01T02:13:03;96525.00;;;-2.70
10869;BMP180;62667;48.698;8.762;2023-03-01T02:15:33;96522.00;;;-2.80
10869;BMP180;62667;48.698;8.762;2023-03-01T02:18:02;96524.00;;;-2.80
10869;BMP180;62667;48.698;8.762;2023-03-01T02:20:34;96518.00;;;-2.80
10869;BMP180;62667;48.698;8.762;2023-03-01T02:23:02;96532.00;;;-2.80
10869;BMP180;62667;48.698;8.762;2023-03-01T02:25:38;96512.00;;;-2.80
10869;BMP180;62667;48.698;8.762;2023-03-01T02:28:20;96510.00;;;-2.80
10869;BMP180;62667;48.698;8.762;2023-03-01T02:30:49;96507.00;;;-2.90
10869;BMP180;62667;48.698;8.762;2023-03-01T02:33:43;96506.00;;;-2.80
10869;BMP180;62667;48.698;8.762;2023-03-01T02:36:14;96490.00;;;-2.80
10869;BMP180;62667;48.698;8.762;2023-03-01T02:38:42;96499.00;;;-2.80
10869;BMP180;62667;48.698;8.762;2023-03-01T02:41:13;96491.00;;;-2.90
10869;BMP180;62667;48.698;8.762;2023-03-01T02:43:44;96489.00;;;-2.80
10869;BMP180;62667;48.698;8.762;2023-03-01T02:46:16;96478.00;;;-2.80
10869;BMP180;62667;48.698;8.762;2023-03-01T02:48:46;96483.00;;;-3.00
10869;BMP180;62667;48.698;8.762;2023-03-01T02:51:24;96483.00;;;-2.90
10869;BMP180;62667;48.698;8.762;2023-03-01T02:54:05;96484.00;;;-2.90
10869;BMP180;62667;48.698;8.762;2023-03-01T02:56:34;96476.00;;;-2.80
10869;BMP180;62667;48.698;8.762;2023-03-01T02:59:03;96478.00;;;-2.90
10869;BMP180;62667;48.698;8.762;2023-03-01T03:01:31;96475.00;;;-2.90
10869;BMP180;62667;48.698;8.762;2023-03-01T03:04:04;96474.00;;;-2.80
10869;BMP180;62667;48.698;8.762;2023-03-01T03:06:32;96457.00;;;-2.70
10869;BMP180;62667;48.698;8.762;2023-03-01T03:09:00;96456.00;;;-2.80
10869;BMP180;62667;48.698;8.762;2023-03-01T03:11:27;96456.00;;;-2.70
10869;BMP180;62667;48.698;8.762;2023-03-01T03:13:56;96460.00;;;-2.60
10869;BMP180;62667;48.698;8.762;2023-03-01T03:16:25;96459.00;;;-2.60
10869;BMP180;62667;48.698;8.762;2023-03-01T03:18:52;96456.00;;;-2.50
10869;BMP180;62667;48.698;8.762;2023-03-01T03:21:20;96452.00;;;-2.40
10869;BMP180;62667;48.698;8.762;2023-03-01T03:23:47;96457.00;;;-2.40
10869;BMP180;62667;48.698;8.762;2023-03-01T03:26:14;96446.00;;;-2.40
10869;BMP180;62667;48.698;8.762;2023-03-01T03:28:42;96444.00;;;-2.30
10869;BMP180;62667;48.698;8.762;2023-03-01T03:31:09;96445.00;;;-2.30
10869;BMP180;62667;48.698;8.762;2023-03-01T03:33:38;96447.00;;;-2.20
10869;BMP180;62667;48.698;8.762;2023-03-01T03:36:06;96446.00;;;-2.20
10869;BMP180;62667;48.698;8.762;2023-03-01T03:38:39;96447.00;;;-2.20
10869;BMP180;62667;48.698;8.762;2023-03-01T03:41:08;96451.00;;;-2.20
10869;BMP180;62667;48.698;8.762;2023-03-01T03:43:37;96453.00;;;-2.10
10869;BMP180;62667;48.698;8.762;2023-03-01T03:46:05;96448.00;;;-2.20
10869;BMP180;62667;48.698;8.762;2023-03-01T03:48:34;96451.00;;;-2.20
10869;BMP180;62667;48.698;8.762;2023-03-01T03:51:03;96452.00;;;-2.20
10869;BMP180;62667;48.698;8.762;2023-03-01T03:53:31;96448.00;;;-2.30
10869;BMP180;62667;48.698;8.762;2023-03-01T03:55:59;96436.00;;;-2.20
10869;BMP180;62667;48.698;8.762;2023-03-01T03:58:27;96446.00;;;-2.20
10869;BMP180;62667;48.698;8.762;2023-03-01T04:00:56;96441.00;;;-2.20
10869;BMP180;62667;48.698;8.762;2023-03-01T04:03:25;96440.00;;;-2.10
10869;BMP180;62667;48.698;8.762;2023-03-01T04:05:53;96432.00;;;-2.10
10869;BMP180;62667;48.698;8.762;2023-03-01T04:08:23;96429.00;;;-2.10
10869;BMP180;62667;48.698;8.762;2023-03-01T04:10:52;96431.00;;;-2.00
10869;BMP180;62667;48.698;8.762;2023-03-01T04:13:21;96419.00;;;-2.10
10869;BMP180;62667;48.698;8.762;2023-03-01T04:15:51;96428.00;;;-2.10
10869;BMP180;62667;48.698;8.762;2023-03-01T04:18:22;96419.00;;;-2.00
10869;BMP180;62667;48.698;8.762;2023-03-01T04:20:50;96415.00;;;-2.00
10869;BMP180;62667;48.698;8.762;2023-03-01T04:23:22;96413.00;;;-2.00
10869;BMP180;62667;48.698;8.762;2023-03-01T04:25:52;96427.00;;;-1.90
10869;BMP180;62667;48.698;8.762;2023-03-01T04:28:21;96413.00;;;-1.90
10869;BMP180;62667;48.698;8.762;2023-03-01T04:30:50;96410.00;;;-1.90
10869;BMP180;62667;48.698;8.762;2023-03-01T04:33:18;96401.00;;;-1.90
10869;BMP180;62667;48.698;8.762;2023-03-01T04:35:46;96409.00;;;-1.80
10869;BMP180;62667;48.698;8.762;2023-03-01T04:38:15;96410.00;;;-1.80
10869;BMP180;62667;48.698;8.762;2023-03-01T04:40:44;96413.00;;;-1.80
10869;BMP180;62667;48.698;8.762;2023-03-01T04:43:12;96410.00;;;-1.80
10869;BMP180;62667;48.698;8.762;2023-03-01T04:45:41;96415.00;;;-1.90
10869;BMP180;62667;48.698;8.762;2023-03-01T04:48:08;96413.00;;;-1.90
10869;BMP180;62667;48.698;8.762;2023-03-01T04:50:36;96422.00;;;-1.90
10869;BMP180;62667;48.698;8.762;2023-03-01T04:53:03;96419.00;;;-1.90
10869;BMP180;62667;48.698;8.762;2023-03-01T04:55:31;96413.00;;;-1.90
10869;BMP180;62667;48.698;8.762;2023-03-01T04:57:59;96415.00;;;-1.80
10869;BMP180;62667;48.698;8.762;2023-03-01T05:00:27;96407.00;;;-1.80
10869;BMP180;62667;48.698;8.762;2023-03-01T05:02:56;96413.00;;;-1.80
10869;BMP180;62667;48.698;8.762;2023-03-01T05:05:25;96417.00;;;-1.80
10869;BMP180;62667;48.698;8.762;2023-03-01T05:07:55;96401.00;;;-1.80
10869;BMP180;62667;48.698;8.762;2023-03-01T05:10:23;96412.00;;;-1.70
10869;BMP180;62667;48.698;8.762;2023-03-01T05:12:51;96405.00;;;-1.80
10869;BMP180;62667;48.698;8.762;2023-03-01T05:15:20;96412.00;;;-1.70
10869;BMP180;62667;48.698;8.762;2023-03-01T05:17:51;96410.00;;;-1.80
10869;BMP180;62667;48.698;8.762;2023-03-01T05:20:20;96407.00;;;-1.80
10869;BMP180;62667;48.698;8.762;2023-03-01T05:22:49;96399.00;;;-1.80
10869;BMP180;62667;48.698;8.762;2023-03-01T05:25:17;96405.00;;;-1.70
10869;BMP180;62667;48.698;8.762;2023-03-01T05:27:45;96406.00;;;-1.70
10869;BMP180;62667;48.698;8.762;2023-03-01T05:30:13;96399.00;;;-1.70
10869;BMP180;62667;48.698;8.762;2023-03-01T05:32:43;96401.00;;;-1.60
10869;BMP180;62667;48.698;8.762;2023-03-01T05:35:12;96405.00;;;-1.60
10869;BMP180;62667;48.698;8.762;2023-03-01T05:37:44;96403.00;;;-1.60
10869;BMP180;62667;48.698;8.762;2023-03-01T05:40:14;96401.00;;;-1.60
10869;BMP180;62667;48.698;8.762;2023-03-01T05:42:43;96400.00;;;-1.60
10869;BMP180;62667;48.698;8.762;2023-03-01T05:45:12;96411.00;;;-1.60
10869;BMP180;62667;48.698;8.762;2023-03-01T05:47:41;96382.00;;;-1.70
10869;BMP180;62667;48.698;8.762;2023-03-01T05:50:14;96402.00;;;-1.70
10869;BMP180;62667;48.698;8.762;2023-03-01T05:52:46;96390.00;;;-1.70
10869;BMP180;62667;48.698;8.762;2023-03-01T05:55:15;96391.00;;;-1.60
10869;BMP180;62667;48.698;8.762;2023-03-01T05:57:42;96398.00;;;-1.60
10869;BMP180;62667;48.698;8.762;2023-03-01T06:00:11;96395.00;;;-1.60
10869;BMP180;62667;48.698;8.762;2023-03-01T06:02:39;96401.00;;;-1.70
10869;BMP180;62667;48.698;8.762;2023-03-01T06:05:10;96395.00;;;-1.60
10869;BMP180;62667;48.698;8.762;2023-03-01T06:07:38;96395.00;;;-1.60
10869;BMP180;62667;48.698;8.762;2023-03-01T06:10:07;96395.00;;;-1.60
10869;BMP180;62667;48.698;8.762;2023-03-01T06:12:36;96397.00;;;-1.60
10869;BMP180;62667;48.698;8.762;2023-03-01T06:15:05;96397.00;;;-1.60
10869;BMP180;62667;48.698;8.762;2023-03-01T06:17:36;96402.00;;;-1.60
10869;BMP180;62667;48.698;8.762;2023-03-01T06:20:05;96393.00;;;-1.70
10869;BMP180;62667;48.698;8.762;2023-03-01T06:22:34;96387.00;;;-1.50
10869;BMP180;62667;48.698;8.762;2023-03-01T06:25:02;96385.00;;;-1.50
10869;BMP180;62667;48.698;8.762;2023-03-01T06:27:29;96382.00;;;-1.50
10869;BMP180;62667;48.698;8.762;2023-03-01T06:29:57;96388.00;;;-1.50
10869;BMP180;62667;48.698;8.762;2023-03-01T06:32:24;96390.00;;;-1.60
10869;BMP180;62667;48.698;8.762;2023-03-01T06:34:52;96392.00;;;-1.60
10869;BMP180;62667;48.698;8.762;2023-03-01T06:37:19;96393.00;;;-1.60
10869;BMP180;62667;48.698;8.762;2023-03-01T06:39:48;96391.00;;;-1.60
10869;BMP180;62667;48.698;8.762;2023-03-01T06:42:16;96384.00;;;-1.40
10869;BMP180;62667;48.698;8.762;2023-03-01T06:44:44;96387.00;;;-1.60
10869;BMP180;62667;48.698;8.762;2023-03-01T06:47:12;96395.00;;;-1.50
10869;BMP180;62667;48.698;8.762;2023-03-01T06:49:40;96391.00;;;-1.50
10869;BMP180;62667;48.698;8.762;2023-03-01T06:52:08;96383.00;;;-1.50
10869;BMP180;62667;48.698;8.762;2023-03-01T06:54:35;96381.00;;;-1.30
10869;BMP180;62667;48.698;8.762;2023-03-01T06:57:04;96392.00;;;-1.30
10869;BMP180;62667;48.698;8.762;2023-03-01T06:59:31;96378.00;;;-1.40
10869;BMP180;62667;48.698;8.762;2023-03-01T07:01:59;96381.00;;;-1.20
10869;BMP180;62667;48.698;8.762;2023-03-01T07:04:26;96384.00;;;-1.30
10869;BMP180;62667;48.698;8.762;2023-03-01T07:06:54;96372.00;;;-1.20
10869;BMP180;62667;48.698;8.762;2023-03-01T07:09:22;96376.00;;;-1.20
10869;BMP180;62667;48.698;8.762;2023-03-01T07:11:50;96370.00;;;-1.10
10869;BMP180;62667;48.698;8.762;2023-03-01T07:14:19;96363.00;;;-1.10
10869;BMP180;62667;48.698;8.762;2023-03-01T07:16:47;96364.00;;;-1.10
10869;BMP180;62667;48.698;8.762;2023-03-01T07:19:14;96372.00;;;-1.10
10869;BMP180;62667;48.698;8.762;2023-03-01T07:21:41;96341.00;;;-0.90
10869;BMP180;62667;48.698;8.762;2023-03-01T07:24:09;96354.00;;;-0.80
10869;BMP180;62667;48.698;8.762;2023-03-01T07:26:36;96356.00;;;-0.60
10869;BMP180;62667;48.698;8.762;2023-03-01T07:29:05;96347.00;;;-0.60
10869;BMP180;62667;48.698;8.762;2023-03-01T07:31:34;96353.00;;;-0.60
10869;BMP180;62667;48.698;8.762;2023-03-01T07:34:03;96351.00;;;-0.40
10869;BMP180;62667;48.698;8.762;2023-03-01T07:36:30;96346.00;;;-0.30
10869;BMP180;62667;48.698;8.762;2023-03-01T07:38:57;96353.00;;;-0.30
10869;BMP180;62667;48.698;8.762;2023-03-01T07:41:26;96355.00;;;-0.20
10869;BMP180;62667;48.698;8.762;2023-03-01T07:43:54;96354.00;;;-0.10
10869;BMP180;62667;48.698;8.762;2023-03-01T07:46:21;96348.00;;;-0.20
10869;BMP180;62667;48.698;8.762;2023-03-01T07:48:50;96352.00;;;-0.30
10869;BMP180;62667;48.698;8.762;2023-03-01T07:51:17;96351.00;;;-0.10
10869;BMP180;62667;48.698;8.762;2023-03-01T07:53:46;96348.00;;;-0.10
10869;BMP180;62667;48.698;8.762;2023-03-01T07:56:15;96345.00;;;-0.20
10869;BMP180;62667;48.698;8.762;2023-03-01T07:58:44;96344.00;;;-0.30
10869;BMP180;62667;48.698;8.762;2023-03-01T08:01:13;96347.00;;;-0.10
10869;BMP180;62667;48.698;8.762;2023-03-01T08:03:41;96340.00;;;0.00
10869;BMP180;62667;48.698;8.762;2023-03-01T08:06:12;96332.00;;;0.20
10869;BMP180;62667;48.698;8.762;2023-03-01T08:08:40;96335.00;;;0.40
10869;BMP180;62667;48.698;8.762;2023-03-01T08:11:09;96337.00;;;0.70
10869;BMP180;62667;48.698;8.762;2023-03-01T08:13:37;96330.00;;;0.70
10869;BMP180;62667;48.698;8.762;2023-03-01T08:16:07;96338.00;;;0.70
10869;BMP180;62667;48.698;8.762;2023-03-01T08:18:35;96331.00;;;0.80
10869;BMP180;62667;48.698;8.762;2023-03-01T08:21:03;96329.00;;;0.80
10869;BMP180;62667;48.698;8.762;2023-03-01T08:23:32;96337.00;;;0.70
10869;BMP180;62667;48.698;8.762;2023-03-01T08:26:05;96326.00;;;0.70
10869;BMP180;62667;48.698;8.762;2023-03-01T08:28:33;96330.00;;;0.80
10869;BMP180;62667;48.698;8.762;2023-03-01T08:31:01;96330.00;;;1.00
10869;BMP180;62667;48.698;8.762;2023-03-01T08:33:28;96327.00;;;0.90
10869;BMP180;62667;48.698;8.762;2023-03-01T08:36:03;96324.00;;;1.10
10869;BMP180;62667;48.698;8.762;2023-03-01T08:38:34;96333.00;;;1.00
10869;BMP180;62667;48.698;8.762;2023-03-01T08:41:02;96323.00;;;1.10
10869;BMP180;62667;48.698;8.762;2023-03-01T08:43:30;96321.00;;;1.10
10869;BMP180;62667;48.698;8.762;2023-03-01T08:45:57;96319.00;;;1.20
10869;BMP180;62667;48.698;8.762;2023-03-01T08:48:27;96321.00;;;1.40
10869;BMP180;62667;48.698;8.762;2023-03-01T08:50:54;96315.00;;;1.60
10869;BMP180;62667;48.698;8.762;2023-03-01T08:53:22;96319.00;;;1.50
10869;BMP180;62667;48.698;8.762;2023-03-01T08:55:51;96321.00;;;1.40
10869;BMP180;62667;48.698;8.762;2023-03-01T08:58:18;96318.00;;;1.40
10869;BMP180;62667;48.698;8.762;2023-03-01T09:00:46;96316.00;;;1.60
10869;BMP180;62667;48.698;8.762;2023-03-01T09:03:13;96309.00;;;1.80
10869;BMP180;62667;48.698;8.762;2023-03-01T09:05:41;96292.00;;;1.70
10869;BMP180;62667;48.698;8.762;2023-03-01T09:08:08;96301.00;;;1.40
10869;BMP180;62667;48.698;8.762;2023-03-01T09:10:38;96287.00;;;1.10
10869;BMP180;62667;48.698;8.762;2023-03-01T09:13:07;96306.00;;;1.30
10869;BMP180;62667;48.698;8.762;2023-03-01T09:15:36;96299.00;;;1.30
10869;BMP180;62667;48.698;8.762;2023-03-01T09:18:03;96294.00;;;1.40
10869;BMP180;62667;48.698;8.762;2023-03-01T09:20:31;96284.00;;;1.90
10869;BMP180;62667;48.698;8.762;2023-03-01T09:22:59;96287.00;;;2.00
10869;BMP180;62667;48.698;8.762;2023-03-01T09:25:27;96289.00;;;2.20
10869;BMP180;62667;48.698;8.762;2023-03-01T09:27:54;96270.00;;;2.20
10869;BMP180;62667;48.698;8.762;2023-03-01T09:30:23;96272.00;;;2.30
10869;BMP180;62667;48.698;8.762;2023-03-01T09:32:51;96270.00;;;2.40
10869;BMP180;62667;48.698;8.762;2023-03-01T09:35:19;96266.00;;;2.50
10869;BMP180;62667;48.698;8.762;2023-03-01T09:37:49;96267.00;;;2.50
10869;BMP180;62667;48.698;8.762;2023-03-01T09:40:18;96255.00;;;2.50
10869;BMP180;62667;48.698;8.762;2023-03-01T09:42:51;96266.00;;;2.90
10869;BMP180;62667;48.698;8.762;2023-03-01T09:45:29;96275.00;;;2.90
10869;BMP180;62667;48.698;8.762;2023-03-01T09:48:00;96264.00;;;2.70
10869;BMP180;62667;48.698;8.762;2023-03-01T09:50:32;96273.00;;;3.10
10869;BMP180;62667;48.698;8.762;2023-03-01T09:53:03;96259.00;;;3.30
10869;BMP180;62667;48.698;8.762;2023-03-01T09:55:37;96265.00;;;2.90
10869;BMP180;62667;48.698;8.762;2023-03-01T10:01:25;96268.00;;;3.20
10869;BMP180;62667;48.698;8.762;2023-03-01T10:04:11;96268.00;;;3.30
10869;BMP180;62667;48.698;8.762;2023-03-01T10:06:46;96252.00;;;3.50
10869;BMP180;62667;48.698;8.762;2023-03-01T10:09:17;96256.00;;;3.60
10869;BMP180;62667;48.698;8.762;2023-03-01T10:11:48;96256.00;;;3.80
10869;BMP180;62667;48.698;8.762;2023-03-01T10:14:27;96246.00;;;4.20
10869;BMP180;62667;48.698;8.762;2023-03-01T10:17:01;96249.00;;;4.20
10869;BMP180;62667;48.698;8.762;2023-03-01T10:19:32;96245.00;;;4.30
10869;BMP180;62667;48.698;8.762;2023-03-01T10:22:04;96231.00;;;3.90
10869;BMP180;62667;48.698;8.762;2023-03-01T10:24:35;96238.00;;;4.20
10869;BMP180;62667;48.698;8.762;2023-03-01T10:27:07;96236.00;;;4.20
10869;BMP180;62667;48.698;8.762;2023-03-01T10:29:43;96234.00;;;4.40
10869;BMP180;62667;48.698;8.762;2023-03-01T10:32:17;96236.00;;;4.10
10869;BMP180;62667;48.698;8.762;2023-03-01T10:34:44;96221.00;;;4.10
10869;BMP180;62667;48.698;8.762;2023-03-01T10:37:14;96223.00;;;4.30
10869;BMP180;62667;48.698;8.762;2023-03-01T10:40:07;96221.00;;;4.50
10869;BMP180;62667;48.698;8.762;2023-03-01T10:42:37;96220.00;;;4.70
10869;BMP180;62667;48.698;8.762;2023-03-01T10:45:17;96232.00;;;4.90
10869;BMP180;62667;48.698;8.762;2023-03-01T10:48:05;96220.00;;;4.80
10869;BMP180;62667;48.698;8.762;2023-03-01T10:50:32;96218.00;;;4.90
10869;BMP180;62667;48.698;8.762;2023-03-01T10:53:02;96211.00;;;4.80
10869;BMP180;62667;48.698;8.762;2023-03-01T10:55:33;96221.00;;;5.10
10869;BMP180;62667;48.698;8.762;2023-03-01T10:58:16;96210.00;;;5.20
10869;BMP180;62667;48.698;8.762;2023-03-01T11:00:50;96210.00;;;5.50
10869;BMP180;62667;48.698;8.762;2023-03-01T11:03:22;96205.00;;;5.70
10869;BMP180;62667;48.698;8.762;2023-03-01T11:06:03;96190.00;;;6.00
10869;BMP180;62667;48.698;8.762;2023-03-01T11:08:34;96191.00;;;6.00
10869;BMP180;62667;48.698;8.762;2023-03-01T11:13:51;96181.00;;;6.20
10869;BMP180;62667;48.698;8.762;2023-03-01T11:16:25;96176.00;;;6.50
10869;BMP180;62667;48.698;8.762;2023-03-01T11:18:59;96182.00;;;6.80
10869;BMP180;62667;48.698;8.762;2023-03-01T11:21:30;96174.00;;;7.00
10869;BMP180;62667;48.698;8.762;2023-03-01T11:23:59;96163.00;;;7.20
10869;BMP180;62667;48.698;8.762;2023-03-01T11:26:28;96171.00;;;7.20
10869;BMP180;62667;48.698;8.762;2023-03-01T11:29:00;96166.00;;;6.90
10869;BMP180;62667;48.698;8.762;2023-03-01T11:31:31;96158.00;;;6.70
10869;BMP180;62667;48.698;8.762;2023-03-01T11:34:05;96155.00;;;6.50
10869;BMP180;62667;48.698;8.762;2023-03-01T11:36:38;96162.00;;;6.80
10869;BMP180;62667;48.698;8.762;2023-03-01T11:39:17;96155.00;;;6.30
10869;BMP180;62667;48.698;8.762;2023-03-01T11:41:52;96149.00;;;6.40
10869;BMP180;62667;48.698;8.762;2023-03-01T11:44:23;96143.00;;;6.80
10869;BMP180;62667;48.698;8.762;2023-03-01T11:47:11;96146.00;;;7.60
10869;BMP180;62667;48.698;8.762;2023-03-01T11:50:07;96150.00;;;8.00
10869;BMP180;62667;48.698;8.762;2023-03-01T11:52:46;96133.00;;;8.40
10869;BMP180;62667;48.698;8.762;2023-03-01T11:55:29;96137.00;;;8.20
10869;BMP180;62667;48.698;8.762;2023-03-01T12:01:00;96133.00;;;8.60
10869;BMP180;62667;48.698;8.762;2023-03-01T12:03:47;96136.00;;;8.80
10869;BMP180;62667;48.698;8.762;2023-03-01T12:06:40;96129.00;;;8.90
10869;BMP180;62667;48.698;8.762;2023-03-01T12:09:36;96124.00;;;9.30
10869;BMP180;62667;48.698;8.762;2023-03-01T12:12:23;96109.00;;;9.50
10869;BMP180;62667;48.698;8.762;2023-03-01T12:15:00;96115.00;;;9.50
10869;BMP180;62667;48.698;8.762;2023-03-01T12:17:43;96118.00;;;9.90
10869;BMP180;62667;48.698;8.762;2023-03-01T12:20:22;96110.00;;;10.00
10869;BMP180;62667;48.698;8.762;2023-03-01T12:23:06;96098.00;;;10.20
10869;BMP180;62667;48.698;8.762;2023-03-01T12:25:40;96097.00;;;10.30
10869;BMP180;62667;48.698;8.762;2023-03-01T12:28:37;96084.00;;;10.80
10869;BMP180;62667;48.698;8.762;2023-03-01T12:31:37;96086.00;;;11.20
10869;BMP180;62667;48.698;8.762;2023-03-01T12:34:27;96087.00;;;11.20
10869;BMP180;62667;48.698;8.762;2023-03-01T12:37:14;96078.00;;;11.20
10869;BMP180;62667;48.698;8.762;2023-03-01T12:39:56;96072.00;;;11.70
10869;BMP180;62667;48.698;8.762;2023-03-01T12:42:30;96078.00;;;11.60
10869;BMP180;62667;48.698;8.762;2023-03-01T12:48:13;96066.00;;;12.40
10869;BMP180;62667;48.698;8.762;2023-03-01T12:50:46;96060.00;;;12.40
10869;BMP180;62667;48.698;8.762;2023-03-01T12:53:24;96057.00;;;12.60
10869;BMP180;62667;48.698;8.762;2023-03-01T12:56:00;96045.00;;;12.90
10869;BMP180;62667;48.698;8.762;2023-03-01T12:58:32;96053.00;;;13.10
10869;BMP180;62667;48.698;8.762;2023-03-01T13:01:13;96055.00;;;13.10
10869;BMP180;62667;48.698;8.762;2023-03-01T13:04:06;96041.00;;;12.90
10869;BMP180;62667;48.698;8.762;2023-03-01T13:06:44;96049.00;;;13.90
10869;BMP180;62667;48.698;8.762;2023-03-01T13:09:19;96039.00;;;13.30
10869;BMP180;62667;48.698;8.762;2023-03-01T13:11:51;96031.00;;;14.00
10869;BMP180;62667;48.698;8.762;2023-03-01T13:14:44;96020.00;;;14.40
10869;BMP180;62667;48.698;8.762;2023-03-01T13:17:30;96014.00;;;14.10
10869;BMP180;62667;48.698;8.762;2023-03-01T13:19:59;96021.00;;;13.60
10869;BMP180;62667;48.698;8.762;2023-03-01T13:22:32;96024.00;;;13.60
10869;BMP180;62667;48.698;8.762;2023-03-01T13:25:15;96021.00;;;14.00
10869;BMP180;62667;48.698;8.762;2023-03-01T13:27:45;96017.00;;;14.70
10869;BMP180;62667;48.698;8.762;2023-03-01T13:30:41;96011.00;;;14.60
10869;BMP180;62667;48.698;8.762;2023-03-01T13:33:44;96012.00;;;15.00
10869;BMP180;62667;48.698;8.762;2023-03-01T13:36:45;96018.00;;;15.20
10869;BMP180;62667;48.698;8.762;2023-03-01T13:39:30;96016.00;;;15.70
10869;BMP180;62667;48.698;8.762;2023-03-01T13:42:02;96008.00;;;16.10
10869;BMP180;62667;48.698;8.762;2023-03-01T13:44:32;96004.00;;;16.50
10869;BMP180;62667;48.698;8.762;2023-03-01T13:47:14;95982.00;;;17.20
10869;BMP180;62667;48.698;8.762;2023-03-01T13:49:48;95987.00;;;17.60
10869;BMP180;62667;48.698;8.762;2023-03-01T13:52:37;95979.00;;;17.90
10869;BMP180;62667;48.698;8.762;2023-03-01T13:55:18;95985.00;;;18.20
10869;BMP180;62667;48.698;8.762;2023-03-01T13:57:50;95989.00;;;19.60
10869;BMP180;62667;48.698;8.762;2023-03-01T14:00:33;95988.00;;;20.20
10869;BMP180;62667;48.698;8.762;2023-03-01T14:03:10;95996.00;;;21.10
10869;BMP180;62667;48.698;8.762;2023-03-01T14:05:39;95991.00;;;20.40
10869;BMP180;62667;48.698;8.762;2023-03-01T14:08:23;95992.00;;;20.90
10869;BMP180;62667;48.698;8.762;2023-03-01T14:11:04;95995.00;;;22.00
10869;BMP180;62667;48.698;8.762;2023-03-01T14:13:58;95997.00;;;23.00
10869;BMP180;62667;48.698;8.762;2023-03-01T14:16:38;95992.00;;;23.30
10869;BMP180;62667;48.698;8.762;2023-03-01T14:19:15;95987.00;;;24.10
10869;BMP180;62667;48.698;8.762;2023-03-01T14:21:44;95995.00;;;24.40
10869;BMP180;62667;48.698;8.762;2023-03-01T14:24:21;95994.00;;;24.80
10869;BMP180;62667;48.698;8.762;2023-03-01T14:26:50;95993.00;;;25.60
10869;BMP180;62667;48.698;8.762;2023-03-01T14:29:34;96012.00;;;26.00
10869;BMP180;62667;48.698;8.762;2023-03-01T14:32:12;96015.00;;;26.80
10869;BMP180;62667;48.698;8.762;2023-03-01T14:34:44;96014.00;;;26.60
10869;BMP180;62667;48.698;8.762;2023-03-01T14:37:21;96019.00;;;26.20
10869;BMP180;62667;48.698;8.762;2023-03-01T14:39:49;96021.00;;;25.70
10869;BMP180;62667;48.698;8.762;2023-03-01T14:42:17;96023.00;;;26.00
10869;BMP180;62667;48.698;8.762;2023-03-01T14:44:49;96044.00;;;25.40
10869;BMP180;62667;48.698;8.762;2023-03-01T14:47:27;96020.00;;;25.10
10869;BMP180;62667;48.698;8.762;2023-03-01T14:50:01;96044.00;;;24.20